sensor_id;sensor_type;location;lat;lon;timestamp;P1;durP1;ratioP1;P2;durP2;ratioP2
38629;SDS011;24384;51.988;4.644;2023-05-23T00:01:07;30.17;;;12.80;;
38629;SDS011;24384;51.988;4.644;2023-05-23T00:03:33;25.10;;;12.35;;
38629;SDS011;24384;51.988;4.644;2023-05-23T00:06:00;16.35;;;10.13;;
38629;SDS011;24384;51.988;4.644;2023-05-23T00:08:25;23.42;;;11.50;;
38629;SDS011;24384;51.988;4.644;2023-05-23T00:10:50;28.13;;;11.45;;
38629;SDS011;24384;51.988;4.644;2023-05-23T00:13:16;27.52;;;11.55;;
38629;SDS011;24384;51.988;4.644;2023-05-23T00:15:41;18.58;;;10.23;;
38629;SDS011;24384;51.988;4.644;2023-05-23T00:18:07;22.23;;;9.82;;
38629;SDS011;24384;51.988;4.644;2023-05-23T00:20:35;13.88;;;9.15;;
38629;SDS011;24384;51.988;4.644;2023-05-23T00:23:11;19.13;;;7.90;;
38629;SDS011;24384;51.988;4.644;2023-05-23T00:25:43;15.40;;;8.23;;
38629;SDS011;24384;51.988;4.644;2023-05-23T00:28:12;12.73;;;7.10;;
38629;SDS011;24384;51.988;4.644;2023-05-23T00:30:38;17.85;;;7.25;;
38629;SDS011;24384;51.988;4.644;2023-05-23T00:33:03;11.32;;;6.30;;
38629;SDS011;24384;51.988;4.644;2023-05-23T00:35:29;14.15;;;7.78;;
38629;SDS011;24384;51.988;4.644;2023-05-23T00:37:54;13.55;;;7.15;;
38629;SDS011;24384;51.988;4.644;2023-05-23T00:40:20;18.17;;;8.27;;
38629;SDS011;24384;51.988;4.644;2023-05-23T00:42:46;18.08;;;8.27;;
38629;SDS011;24384;51.988;4.644;2023-05-23T00:45:12;22.67;;;9.02;;
38629;SDS011;24384;51.988;4.644;2023-05-23T00:47:38;24.40;;;9.75;;
38629;SDS011;24384;51.988;4.644;2023-05-23T00:50:06;22.25;;;9.10;;
38629;SDS011;24384;51.988;4.644;2023-05-23T00:52:33;20.02;;;9.07;;
38629;SDS011;24384;51.988;4.644;2023-05-23T00:54:59;22.08;;;9.93;;
38629;SDS011;24384;51.988;4.644;2023-05-23T00:57:24;29.23;;;10.52;;
38629;SDS011;24384;51.988;4.644;2023-05-23T00:59:50;27.92;;;10.07;;
38629;SDS011;24384;51.988;4.644;2023-05-23T01:02:15;18.75;;;8.90;;
38629;SDS011;24384;51.988;4.644;2023-05-23T01:04:41;26.13;;;10.52;;
38629;SDS011;24384;51.988;4.644;2023-05-23T01:07:08;21.60;;;9.60;;
38629;SDS011;24384;51.988;4.644;2023-05-23T01:09:34;20.90;;;9.75;;
38629;SDS011;24384;51.988;4.644;2023-05-23T01:17:32;22.25;;;9.90;;
38629;SDS011;24384;51.988;4.644;2023-05-23T01:20:14;22.02;;;10.02;;
38629;SDS011;24384;51.988;4.644;2023-05-23T01:22:48;24.83;;;12.77;;
38629;SDS011;24384;51.988;4.644;2023-05-23T01:28:15;31.13;;;11.38;;
38629;SDS011;24384;51.988;4.644;2023-05-23T01:30:44;26.63;;;10.55;;
38629;SDS011;24384;51.988;4.644;2023-05-23T01:33:10;28.63;;;10.88;;
38629;SDS011;24384;51.988;4.644;2023-05-23T01:35:39;26.77;;;10.20;;
38629;SDS011;24384;51.988;4.644;2023-05-23T01:38:07;29.25;;;10.30;;
38629;SDS011;24384;51.988;4.644;2023-05-23T01:40:33;24.60;;;8.65;;
38629;SDS011;24384;51.988;4.644;2023-05-23T01:42:58;28.10;;;10.07;;
38629;SDS011;24384;51.988;4.644;2023-05-23T01:45:24;23.23;;;8.63;;
38629;SDS011;24384;51.988;4.644;2023-05-23T01:47:51;25.65;;;8.75;;
38629;SDS011;24384;51.988;4.644;2023-05-23T01:50:18;27.15;;;10.50;;
38629;SDS011;24384;51.988;4.644;2023-05-23T01:52:44;43.65;;;11.75;;
38629;SDS011;24384;51.988;4.644;2023-05-23T01:55:11;22.38;;;9.90;;
38629;SDS011;24384;51.988;4.644;2023-05-23T01:57:40;29.02;;;9.27;;
38629;SDS011;24384;51.988;4.644;2023-05-23T02:00:06;30.30;;;9.43;;
38629;SDS011;24384;51.988;4.644;2023-05-23T02:02:35;25.40;;;9.23;;
38629;SDS011;24384;51.988;4.644;2023-05-23T02:05:00;23.48;;;9.57;;
38629;SDS011;24384;51.988;4.644;2023-05-23T02:07:26;23.38;;;8.73;;
38629;SDS011;24384;51.988;4.644;2023-05-23T02:09:51;30.92;;;8.90;;
38629;SDS011;24384;51.988;4.644;2023-05-23T02:12:16;30.60;;;8.32;;
38629;SDS011;24384;51.988;4.644;2023-05-23T02:14:42;29.08;;;9.68;;
38629;SDS011;24384;51.988;4.644;2023-05-23T02:17:07;21.70;;;8.15;;
38629;SDS011;24384;51.988;4.644;2023-05-23T02:19:36;28.67;;;9.90;;
38629;SDS011;24384;51.988;4.644;2023-05-23T02:22:01;27.92;;;9.18;;
38629;SDS011;24384;51.988;4.644;2023-05-23T02:24:27;27.70;;;8.13;;
38629;SDS011;24384;51.988;4.644;2023-05-23T02:26:52;23.80;;;8.85;;
38629;SDS011;24384;51.988;4.644;2023-05-23T02:29:18;23.80;;;8.65;;
38629;SDS011;24384;51.988;4.644;2023-05-23T02:31:44;27.85;;;7.80;;
38629;SDS011;24384;51.988;4.644;2023-05-23T02:34:10;20.13;;;7.63;;
38629;SDS011;24384;51.988;4.644;2023-05-23T02:36:35;26.60;;;8.48;;
38629;SDS011;24384;51.988;4.644;2023-05-23T02:39:01;28.35;;;8.65;;
38629;SDS011;24384;51.988;4.644;2023-05-23T02:41:26;33.22;;;8.20;;
38629;SDS011;24384;51.988;4.644;2023-05-23T02:43:52;26.52;;;8.00;;
38629;SDS011;24384;51.988;4.644;2023-05-23T02:46:17;23.23;;;8.75;;
38629;SDS011;24384;51.988;4.644;2023-05-23T02:48:42;25.95;;;7.63;;
38629;SDS011;24384;51.988;4.644;2023-05-23T02:51:08;29.40;;;8.30;;
38629;SDS011;24384;51.988;4.644;2023-05-23T02:53:33;21.45;;;7.85;;
38629;SDS011;24384;51.988;4.644;2023-05-23T02:55:59;24.02;;;8.45;;
38629;SDS011;24384;51.988;4.644;2023-05-23T02:58:24;23.05;;;6.72;;
38629;SDS011;24384;51.988;4.644;2023-05-23T03:00:49;19.80;;;6.43;;
38629;SDS011;24384;51.988;4.644;2023-05-23T03:03:15;21.45;;;7.28;;
38629;SDS011;24384;51.988;4.644;2023-05-23T03:05:41;23.58;;;6.07;;
38629;SDS011;24384;51.988;4.644;2023-05-23T03:08:06;19.98;;;6.22;;
38629;SDS011;24384;51.988;4.644;2023-05-23T03:10:32;24.73;;;5.72;;
38629;SDS011;24384;51.988;4.644;2023-05-23T03:12:57;26.77;;;6.38;;
38629;SDS011;24384;51.988;4.644;2023-05-23T03:15:23;25.40;;;7.13;;
38629;SDS011;24384;51.988;4.644;2023-05-23T03:17:48;29.00;;;7.10;;
38629;SDS011;24384;51.988;4.644;2023-05-23T03:20:13;24.02;;;7.10;;
38629;SDS011;24384;51.988;4.644;2023-05-23T03:22:39;20.13;;;5.68;;
38629;SDS011;24384;51.988;4.644;2023-05-23T03:25:07;23.95;;;6.13;;
38629;SDS011;24384;51.988;4.644;2023-05-23T03:27:33;14.57;;;5.82;;
38629;SDS011;24384;51.988;4.644;2023-05-23T03:29:58;20.13;;;5.38;;
38629;SDS011;24384;51.988;4.644;2023-05-23T03:32:23;16.35;;;5.03;;
38629;SDS011;24384;51.988;4.644;2023-05-23T03:34:49;16.35;;;4.82;;
38629;SDS011;24384;51.988;4.644;2023-05-23T03:37:14;17.75;;;5.45;;
38629;SDS011;24384;51.988;4.644;2023-05-23T03:39:39;15.13;;;5.10;;
38629;SDS011;24384;51.988;4.644;2023-05-23T03:42:04;18.58;;;5.65;;
38629;SDS011;24384;51.988;4.644;2023-05-23T03:44:30;19.83;;;5.75;;
38629;SDS011;24384;51.988;4.644;2023-05-23T03:46:55;15.27;;;5.78;;
38629;SDS011;24384;51.988;4.644;2023-05-23T03:49:22;12.70;;;6.47;;
38629;SDS011;24384;51.988;4.644;2023-05-23T03:51:47;21.83;;;10.23;;
38629;SDS011;24384;51.988;4.644;2023-05-23T03:54:12;17.13;;;10.27;;
38629;SDS011;24384;51.988;4.644;2023-05-23T03:56:37;19.27;;;9.15;;
38629;SDS011;24384;51.988;4.644;2023-05-23T03:59:03;14.98;;;7.50;;
38629;SDS011;24384;51.988;4.644;2023-05-23T04:01:28;19.45;;;6.70;;
38629;SDS011;24384;51.988;4.644;2023-05-23T04:03:53;15.23;;;4.80;;
38629;SDS011;24384;51.988;4.644;2023-05-23T04:06:19;18.63;;;4.80;;
38629;SDS011;24384;51.988;4.644;2023-05-23T04:08:45;16.58;;;5.40;;
38629;SDS011;24384;51.988;4.644;2023-05-23T04:11:10;13.85;;;5.95;;
38629;SDS011;24384;51.988;4.644;2023-05-23T04:13:35;17.20;;;5.38;;
38629;SDS011;24384;51.988;4.644;2023-05-23T04:16:01;15.52;;;6.25;;
38629;SDS011;24384;51.988;4.644;2023-05-23T04:18:29;12.68;;;6.10;;
38629;SDS011;24384;51.988;4.644;2023-05-23T04:20:55;15.38;;;4.97;;
38629;SDS011;24384;51.988;4.644;2023-05-23T04:23:20;25.80;;;5.35;;
38629;SDS011;24384;51.988;4.644;2023-05-23T04:25:46;16.20;;;4.78;;
38629;SDS011;24384;51.988;4.644;2023-05-23T04:28:12;17.23;;;4.97;;
38629;SDS011;24384;51.988;4.644;2023-05-23T04:30:38;24.17;;;6.85;;
38629;SDS011;24384;51.988;4.644;2023-05-23T04:33:03;15.50;;;5.68;;
38629;SDS011;24384;51.988;4.644;2023-05-23T04:35:28;22.98;;;7.80;;
38629;SDS011;24384;51.988;4.644;2023-05-23T04:37:54;14.63;;;4.93;;
38629;SDS011;24384;51.988;4.644;2023-05-23T04:40:21;14.50;;;4.80;;
38629;SDS011;24384;51.988;4.644;2023-05-23T04:42:49;14.00;;;5.50;;
38629;SDS011;24384;51.988;4.644;2023-05-23T04:45:15;17.15;;;5.78;;
38629;SDS011;24384;51.988;4.644;2023-05-23T04:47:41;23.67;;;7.15;;
38629;SDS011;24384;51.988;4.644;2023-05-23T04:50:08;24.83;;;7.03;;
38629;SDS011;24384;51.988;4.644;2023-05-23T04:52:34;15.32;;;6.25;;
38629;SDS011;24384;51.988;4.644;2023-05-23T04:55:00;19.58;;;6.63;;
38629;SDS011;24384;51.988;4.644;2023-05-23T04:57:25;18.50;;;6.75;;
38629;SDS011;24384;51.988;4.644;2023-05-23T04:59:50;17.73;;;6.25;;
38629;SDS011;24384;51.988;4.644;2023-05-23T05:02:16;25.17;;;7.60;;
38629;SDS011;24384;51.988;4.644;2023-05-23T05:04:41;22.95;;;6.28;;
38629;SDS011;24384;51.988;4.644;2023-05-23T05:07:07;24.70;;;8.35;;
38629;SDS011;24384;51.988;4.644;2023-05-23T05:09:33;23.02;;;6.90;;
38629;SDS011;24384;51.988;4.644;2023-05-23T05:11:58;24.45;;;8.55;;
38629;SDS011;24384;51.988;4.644;2023-05-23T05:14:24;17.95;;;7.25;;
38629;SDS011;24384;51.988;4.644;2023-05-23T05:16:50;23.63;;;9.18;;
38629;SDS011;24384;51.988;4.644;2023-05-23T05:19:16;24.90;;;8.18;;
38629;SDS011;24384;51.988;4.644;2023-05-23T05:21:41;26.95;;;8.82;;
38629;SDS011;24384;51.988;4.644;2023-05-23T05:24:08;26.45;;;8.95;;
38629;SDS011;24384;51.988;4.644;2023-05-23T05:26:36;23.33;;;7.57;;
38629;SDS011;24384;51.988;4.644;2023-05-23T05:29:02;19.00;;;6.85;;
38629;SDS011;24384;51.988;4.644;2023-05-23T05:31:28;27.60;;;7.38;;
38629;SDS011;24384;51.988;4.644;2023-05-23T05:33:53;18.00;;;7.75;;
38629;SDS011;24384;51.988;4.644;2023-05-23T05:36:20;22.70;;;8.00;;
38629;SDS011;24384;51.988;4.644;2023-05-23T05:38:45;23.73;;;7.53;;
38629;SDS011;24384;51.988;4.644;2023-05-23T05:41:11;27.17;;;7.80;;
38629;SDS011;24384;51.988;4.644;2023-05-23T05:43:36;23.30;;;7.57;;
38629;SDS011;24384;51.988;4.644;2023-05-23T05:46:01;23.48;;;6.95;;
38629;SDS011;24384;51.988;4.644;2023-05-23T05:48:27;22.23;;;7.95;;
38629;SDS011;24384;51.988;4.644;2023-05-23T05:50:52;23.35;;;8.52;;
38629;SDS011;24384;51.988;4.644;2023-05-23T05:53:17;17.65;;;6.68;;
38629;SDS011;24384;51.988;4.644;2023-05-23T05:55:42;18.35;;;7.28;;
38629;SDS011;24384;51.988;4.644;2023-05-23T05:58:08;20.83;;;6.70;;
38629;SDS011;24384;51.988;4.644;2023-05-23T06:00:33;16.67;;;7.20;;
38629;SDS011;24384;51.988;4.644;2023-05-23T06:03:05;22.45;;;7.68;;
38629;SDS011;24384;51.988;4.644;2023-05-23T06:05:31;19.85;;;7.50;;
38629;SDS011;24384;51.988;4.644;2023-05-23T06:07:56;23.10;;;7.65;;
38629;SDS011;24384;51.988;4.644;2023-05-23T06:10:21;17.33;;;7.13;;
38629;SDS011;24384;51.988;4.644;2023-05-23T06:12:48;20.27;;;7.15;;
38629;SDS011;24384;51.988;4.644;2023-05-23T06:15:14;22.55;;;8.02;;
38629;SDS011;24384;51.988;4.644;2023-05-23T06:17:40;18.45;;;5.97;;
38629;SDS011;24384;51.988;4.644;2023-05-23T06:20:05;21.63;;;6.70;;
38629;SDS011;24384;51.988;4.644;2023-05-23T06:22:32;11.75;;;5.20;;
38629;SDS011;24384;51.988;4.644;2023-05-23T06:24:57;16.20;;;6.20;;
38629;SDS011;24384;51.988;4.644;2023-05-23T06:27:22;12.60;;;5.07;;
38629;SDS011;24384;51.988;4.644;2023-05-23T06:29:47;16.67;;;5.38;;
38629;SDS011;24384;51.988;4.644;2023-05-23T06:32:13;14.30;;;4.28;;
38629;SDS011;24384;51.988;4.644;2023-05-23T06:34:38;8.30;;;3.60;;
38629;SDS011;24384;51.988;4.644;2023-05-23T06:37:03;13.30;;;4.18;;
38629;SDS011;24384;51.988;4.644;2023-05-23T06:39:28;7.00;;;4.00;;
38629;SDS011;24384;51.988;4.644;2023-05-23T06:41:54;16.88;;;4.32;;
38629;SDS011;24384;51.988;4.644;2023-05-23T06:44:19;14.38;;;5.07;;
38629;SDS011;24384;51.988;4.644;2023-05-23T06:46:45;16.60;;;4.57;;
38629;SDS011;24384;51.988;4.644;2023-05-23T06:49:10;16.83;;;4.40;;
38629;SDS011;24384;51.988;4.644;2023-05-23T06:51:37;14.93;;;4.43;;
38629;SDS011;24384;51.988;4.644;2023-05-23T06:54:03;11.77;;;4.18;;
38629;SDS011;24384;51.988;4.644;2023-05-23T06:56:28;12.02;;;3.80;;
38629;SDS011;24384;51.988;4.644;2023-05-23T06:58:54;13.88;;;3.33;;
38629;SDS011;24384;51.988;4.644;2023-05-23T07:01:19;12.65;;;4.05;;
38629;SDS011;24384;51.988;4.644;2023-05-23T07:03:44;8.65;;;2.95;;
38629;SDS011;24384;51.988;4.644;2023-05-23T07:06:10;20.70;;;4.45;;
38629;SDS011;24384;51.988;4.644;2023-05-23T07:08:36;14.02;;;3.58;;
38629;SDS011;24384;51.988;4.644;2023-05-23T07:11:02;10.98;;;3.10;;
38629;SDS011;24384;51.988;4.644;2023-05-23T07:13:27;10.48;;;2.83;;
38629;SDS011;24384;51.988;4.644;2023-05-23T07:15:54;12.90;;;2.97;;
38629;SDS011;24384;51.988;4.644;2023-05-23T07:18:20;11.13;;;3.67;;
38629;SDS011;24384;51.988;4.644;2023-05-23T07:20:45;14.95;;;3.00;;
38629;SDS011;24384;51.988;4.644;2023-05-23T07:23:10;12.88;;;2.75;;
38629;SDS011;24384;51.988;4.644;2023-05-23T07:25:36;16.25;;;3.97;;
38629;SDS011;24384;51.988;4.644;2023-05-23T07:28:01;12.30;;;3.42;;
38629;SDS011;24384;51.988;4.644;2023-05-23T07:30:26;21.27;;;3.95;;
38629;SDS011;24384;51.988;4.644;2023-05-23T07:32:52;17.27;;;3.05;;
38629;SDS011;24384;51.988;4.644;2023-05-23T07:35:17;15.45;;;2.90;;
38629;SDS011;24384;51.988;4.644;2023-05-23T07:37:43;13.55;;;2.90;;
38629;SDS011;24384;51.988;4.644;2023-05-23T07:40:08;14.95;;;4.13;;
38629;SDS011;24384;51.988;4.644;2023-05-23T07:42:34;12.27;;;3.00;;
38629;SDS011;24384;51.988;4.644;2023-05-23T07:44:59;11.63;;;3.20;;
38629;SDS011;24384;51.988;4.644;2023-05-23T07:47:25;16.98;;;2.80;;
38629;SDS011;24384;51.988;4.644;2023-05-23T07:49:51;9.05;;;2.55;;
38629;SDS011;24384;51.988;4.644;2023-05-23T07:52:17;28.38;;;3.88;;
38629;SDS011;24384;51.988;4.644;2023-05-23T07:54:42;12.38;;;2.97;;
38629;SDS011;24384;51.988;4.644;2023-05-23T07:57:08;17.15;;;3.30;;
38629;SDS011;24384;51.988;4.644;2023-05-23T07:59:33;15.38;;;3.20;;
38629;SDS011;24384;51.988;4.644;2023-05-23T08:01:59;13.02;;;3.95;;
38629;SDS011;24384;51.988;4.644;2023-05-23T08:04:25;19.42;;;4.30;;
38629;SDS011;24384;51.988;4.644;2023-05-23T08:06:50;9.40;;;2.40;;
38629;SDS011;24384;51.988;4.644;2023-05-23T08:09:16;18.92;;;4.60;;
38629;SDS011;24384;51.988;4.644;2023-05-23T08:11:41;12.55;;;3.22;;
38629;SDS011;24384;51.988;4.644;2023-05-23T08:14:06;16.27;;;3.75;;
38629;SDS011;24384;51.988;4.644;2023-05-23T08:16:32;18.83;;;3.33;;
38629;SDS011;24384;51.988;4.644;2023-05-23T08:18:58;12.32;;;3.42;;
38629;SDS011;24384;51.988;4.644;2023-05-23T08:21:24;14.93;;;4.35;;
38629;SDS011;24384;51.988;4.644;2023-05-23T08:23:49;14.70;;;4.20;;
38629;SDS011;24384;51.988;4.644;2023-05-23T08:26:14;16.42;;;3.80;;
38629;SDS011;24384;51.988;4.644;2023-05-23T08:28:40;15.75;;;3.92;;
38629;SDS011;24384;51.988;4.644;2023-05-23T08:31:05;13.68;;;4.28;;
38629;SDS011;24384;51.988;4.644;2023-05-23T08:33:31;17.38;;;3.58;;
38629;SDS011;24384;51.988;4.644;2023-05-23T08:35:56;16.45;;;4.20;;
38629;SDS011;24384;51.988;4.644;2023-05-23T08:38:22;20.73;;;3.65;;
38629;SDS011;24384;51.988;4.644;2023-05-23T08:40:51;16.98;;;3.78;;
38629;SDS011;24384;51.988;4.644;2023-05-23T08:43:16;14.15;;;4.40;;
38629;SDS011;24384;51.988;4.644;2023-05-23T08:45:42;15.05;;;3.53;;
38629;SDS011;24384;51.988;4.644;2023-05-23T08:48:08;20.20;;;4.05;;
38629;SDS011;24384;51.988;4.644;2023-05-23T08:50:37;15.95;;;3.42;;
38629;SDS011;24384;51.988;4.644;2023-05-23T08:53:04;14.77;;;3.95;;
38629;SDS011;24384;51.988;4.644;2023-05-23T08:55:32;15.52;;;3.42;;
38629;SDS011;24384;51.988;4.644;2023-05-23T08:57:58;13.98;;;3.35;;
38629;SDS011;24384;51.988;4.644;2023-05-23T09:00:24;12.45;;;3.85;;
38629;SDS011;24384;51.988;4.644;2023-05-23T09:02:50;12.35;;;4.00;;
38629;SDS011;24384;51.988;4.644;2023-05-23T09:05:16;15.80;;;4.43;;
38629;SDS011;24384;51.988;4.644;2023-05-23T09:07:42;19.33;;;4.63;;
38629;SDS011;24384;51.988;4.644;2023-05-23T09:10:09;13.50;;;3.40;;
38629;SDS011;24384;51.988;4.644;2023-05-23T09:12:34;9.93;;;3.60;;
38629;SDS011;24384;51.988;4.644;2023-05-23T09:15:01;19.13;;;5.95;;
38629;SDS011;24384;51.988;4.644;2023-05-23T09:17:31;16.27;;;3.35;;
38629;SDS011;24384;51.988;4.644;2023-05-23T09:20:00;16.77;;;3.35;;
38629;SDS011;24384;51.988;4.644;2023-05-23T09:22:26;14.75;;;3.45;;
38629;SDS011;24384;51.988;4.644;2023-05-23T09:24:55;9.45;;;3.03;;
38629;SDS011;24384;51.988;4.644;2023-05-23T09:27:22;13.15;;;3.75;;
38629;SDS011;24384;51.988;4.644;2023-05-23T09:29:48;13.70;;;4.50;;
38629;SDS011;24384;51.988;4.644;2023-05-23T09:32:14;10.65;;;3.80;;
38629;SDS011;24384;51.988;4.644;2023-05-23T09:34:41;13.45;;;2.90;;
38629;SDS011;24384;51.988;4.644;2023-05-23T09:37:18;18.02;;;4.85;;
38629;SDS011;24384;51.988;4.644;2023-05-23T09:39:47;17.40;;;4.07;;
38629;SDS011;24384;51.988;4.644;2023-05-23T09:42:17;20.10;;;5.30;;
38629;SDS011;24384;51.988;4.644;2023-05-23T09:44:44;26.45;;;5.25;;
38629;SDS011;24384;51.988;4.644;2023-05-23T09:47:11;21.65;;;4.85;;
38629;SDS011;24384;51.988;4.644;2023-05-23T09:49:37;16.05;;;3.83;;
38629;SDS011;24384;51.988;4.644;2023-05-23T09:52:04;28.10;;;6.38;;
38629;SDS011;24384;51.988;4.644;2023-05-23T09:54:29;25.30;;;5.05;;
38629;SDS011;24384;51.988;4.644;2023-05-23T09:56:56;13.27;;;3.70;;
38629;SDS011;24384;51.988;4.644;2023-05-23T09:59:24;17.83;;;4.70;;
38629;SDS011;24384;51.988;4.644;2023-05-23T10:01:54;16.70;;;3.90;;
38629;SDS011;24384;51.988;4.644;2023-05-23T10:04:21;14.45;;;4.25;;
38629;SDS011;24384;51.988;4.644;2023-05-23T10:06:49;11.88;;;3.60;;
38629;SDS011;24384;51.988;4.644;2023-05-23T10:09:18;21.13;;;3.65;;
38629;SDS011;24384;51.988;4.644;2023-05-23T10:12:06;22.58;;;5.00;;
38629;SDS011;24384;51.988;4.644;2023-05-23T10:14:37;21.05;;;4.38;;
38629;SDS011;24384;51.988;4.644;2023-05-23T10:17:10;21.75;;;5.40;;
38629;SDS011;24384;51.988;4.644;2023-05-23T10:19:42;18.63;;;4.05;;
38629;SDS011;24384;51.988;4.644;2023-05-23T10:22:11;21.52;;;4.20;;
38629;SDS011;24384;51.988;4.644;2023-05-23T10:24:38;18.13;;;4.10;;
38629;SDS011;24384;51.988;4.644;2023-05-23T10:27:04;18.95;;;3.92;;
38629;SDS011;24384;51.988;4.644;2023-05-23T10:29:30;18.35;;;5.25;;
38629;SDS011;24384;51.988;4.644;2023-05-23T10:31:57;16.92;;;4.68;;
38629;SDS011;24384;51.988;4.644;2023-05-23T10:34:31;24.80;;;6.15;;
38629;SDS011;24384;51.988;4.644;2023-05-23T10:37:03;15.18;;;3.47;;
38629;SDS011;24384;51.988;4.644;2023-05-23T10:39:33;18.50;;;3.88;;
38629;SDS011;24384;51.988;4.644;2023-05-23T10:44:51;19.65;;;4.43;;
38629;SDS011;24384;51.988;4.644;2023-05-23T10:47:24;14.80;;;3.83;;
38629;SDS011;24384;51.988;4.644;2023-05-23T10:49:53;18.67;;;5.15;;
38629;SDS011;24384;51.988;4.644;2023-05-23T10:52:19;19.27;;;4.53;;
38629;SDS011;24384;51.988;4.644;2023-05-23T10:54:46;16.55;;;4.35;;
38629;SDS011;24384;51.988;4.644;2023-05-23T10:57:26;16.83;;;4.40;;
38629;SDS011;24384;51.988;4.644;2023-05-23T10:59:52;17.13;;;4.00;;
38629;SDS011;24384;51.988;4.644;2023-05-23T11:02:26;11.98;;;3.53;;
38629;SDS011;24384;51.988;4.644;2023-05-23T11:07:41;18.95;;;4.43;;
38629;SDS011;24384;51.988;4.644;2023-05-23T11:10:09;15.85;;;4.40;;
38629;SDS011;24384;51.988;4.644;2023-05-23T11:12:39;14.05;;;4.47;;
38629;SDS011;24384;51.988;4.644;2023-05-23T11:18:09;20.92;;;4.65;;
38629;SDS011;24384;51.988;4.644;2023-05-23T11:20:36;13.40;;;3.28;;
38629;SDS011;24384;51.988;4.644;2023-05-23T11:23:02;12.80;;;3.60;;
38629;SDS011;24384;51.988;4.644;2023-05-23T11:26:05;17.20;;;4.60;;
38629;SDS011;24384;51.988;4.644;2023-05-23T11:28:23;19.30;;;4.10;;
38629;SDS011;24384;51.988;4.644;2023-05-23T11:30:49;15.00;;;3.78;;
38629;SDS011;24384;51.988;4.644;2023-05-23T11:33:15;18.08;;;5.72;;
38629;SDS011;24384;51.988;4.644;2023-05-23T11:35:41;16.40;;;4.18;;
38629;SDS011;24384;51.988;4.644;2023-05-23T11:38:09;18.88;;;4.25;;
38629;SDS011;24384;51.988;4.644;2023-05-23T11:40:38;13.95;;;5.18;;
38629;SDS011;24384;51.988;4.644;2023-05-23T11:43:06;22.73;;;5.32;;
38629;SDS011;24384;51.988;4.644;2023-05-23T11:45:33;21.05;;;3.80;;
38629;SDS011;24384;51.988;4.644;2023-05-23T11:48:04;18.20;;;4.05;;
38629;SDS011;24384;51.988;4.644;2023-05-23T11:50:30;15.25;;;3.60;;
38629;SDS011;24384;51.988;4.644;2023-05-23T11:52:55;11.65;;;3.75;;
38629;SDS011;24384;51.988;4.644;2023-05-23T11:55:21;18.77;;;3.72;;
38629;SDS011;24384;51.988;4.644;2023-05-23T11:57:47;21.23;;;4.25;;
38629;SDS011;24384;51.988;4.644;2023-05-23T12:00:13;12.40;;;3.30;;
38629;SDS011;24384;51.988;4.644;2023-05-23T12:02:39;15.43;;;3.33;;
38629;SDS011;24384;51.988;4.644;2023-05-23T12:05:08;17.90;;;3.70;;
38629;SDS011;24384;51.988;4.644;2023-05-23T12:07:35;15.88;;;3.33;;
38629;SDS011;24384;51.988;4.644;2023-05-23T12:10:05;19.20;;;3.80;;
38629;SDS011;24384;51.988;4.644;2023-05-23T12:12:31;14.20;;;3.15;;
38629;SDS011;24384;51.988;4.644;2023-05-23T12:14:56;21.27;;;3.60;;
38629;SDS011;24384;51.988;4.644;2023-05-23T12:17:22;15.77;;;3.80;;
38629;SDS011;24384;51.988;4.644;2023-05-23T12:19:48;11.68;;;3.50;;
38629;SDS011;24384;51.988;4.644;2023-05-23T12:22:13;19.52;;;3.55;;
38629;SDS011;24384;51.988;4.644;2023-05-23T12:24:43;13.80;;;3.20;;
38629;SDS011;24384;51.988;4.644;2023-05-23T12:27:10;13.90;;;3.65;;
38629;SDS011;24384;51.988;4.644;2023-05-23T12:29:36;10.70;;;3.20;;
38629;SDS011;24384;51.988;4.644;2023-05-23T12:32:03;21.73;;;3.88;;
38629;SDS011;24384;51.988;4.644;2023-05-23T12:34:30;17.27;;;4.05;;
38629;SDS011;24384;51.988;4.644;2023-05-23T12:36:55;22.98;;;4.50;;
38629;SDS011;24384;51.988;4.644;2023-05-23T12:39:25;29.00;;;3.95;;
38629;SDS011;24384;51.988;4.644;2023-05-23T12:41:52;14.80;;;4.35;;
38629;SDS011;24384;51.988;4.644;2023-05-23T12:44:20;13.75;;;3.33;;
38629;SDS011;24384;51.988;4.644;2023-05-23T12:46:45;15.32;;;3.85;;
38629;SDS011;24384;51.988;4.644;2023-05-23T12:49:12;14.90;;;3.53;;
38629;SDS011;24384;51.988;4.644;2023-05-23T12:51:37;19.73;;;3.92;;
38629;SDS011;24384;51.988;4.644;2023-05-23T12:54:02;19.48;;;5.28;;
38629;SDS011;24384;51.988;4.644;2023-05-23T12:56:28;13.43;;;4.00;;
38629;SDS011;24384;51.988;4.644;2023-05-23T12:58:53;19.77;;;4.95;;
38629;SDS011;24384;51.988;4.644;2023-05-23T13:01:20;19.20;;;4.63;;
38629;SDS011;24384;51.988;4.644;2023-05-23T13:03:45;16.02;;;4.13;;
38629;SDS011;24384;51.988;4.644;2023-05-23T13:06:10;21.33;;;4.45;;
38629;SDS011;24384;51.988;4.644;2023-05-23T13:08:36;17.52;;;3.65;;
38629;SDS011;24384;51.988;4.644;2023-05-23T13:11:01;12.88;;;3.20;;
38629;SDS011;24384;51.988;4.644;2023-05-23T13:13:27;14.02;;;3.60;;
38629;SDS011;24384;51.988;4.644;2023-05-23T13:15:52;13.93;;;4.32;;
38629;SDS011;24384;51.988;4.644;2023-05-23T13:18:18;17.15;;;4.03;;
38629;SDS011;24384;51.988;4.644;2023-05-23T13:20:43;15.95;;;4.53;;
38629;SDS011;24384;51.988;4.644;2023-05-23T13:23:08;13.38;;;3.28;;
38629;SDS011;24384;51.988;4.644;2023-05-23T13:25:34;18.73;;;4.95;;
38629;SDS011;24384;51.988;4.644;2023-05-23T13:27:59;18.50;;;4.07;;
38629;SDS011;24384;51.988;4.644;2023-05-23T13:30:25;16.92;;;3.33;;
38629;SDS011;24384;51.988;4.644;2023-05-23T13:32:53;12.60;;;3.75;;
38629;SDS011;24384;51.988;4.644;2023-05-23T13:35:18;15.68;;;3.83;;
38629;SDS011;24384;51.988;4.644;2023-05-23T13:37:43;11.10;;;3.38;;
38629;SDS011;24384;51.988;4.644;2023-05-23T13:40:11;11.18;;;3.25;;
38629;SDS011;24384;51.988;4.644;2023-05-23T13:42:41;13.25;;;3.42;;
38629;SDS011;24384;51.988;4.644;2023-05-23T13:45:06;17.92;;;3.60;;
38629;SDS011;24384;51.988;4.644;2023-05-23T13:47:32;14.68;;;3.33;;
38629;SDS011;24384;51.988;4.644;2023-05-23T13:49:57;10.40;;;3.42;;
38629;SDS011;24384;51.988;4.644;2023-05-23T13:52:23;20.35;;;3.25;;
38629;SDS011;24384;51.988;4.644;2023-05-23T13:54:48;12.18;;;3.35;;
38629;SDS011;24384;51.988;4.644;2023-05-23T13:57:13;19.67;;;4.28;;
38629;SDS011;24384;51.988;4.644;2023-05-23T13:59:38;19.67;;;4.05;;
38629;SDS011;24384;51.988;4.644;2023-05-23T14:02:04;19.10;;;3.75;;
38629;SDS011;24384;51.988;4.644;2023-05-23T14:04:31;18.63;;;3.95;;
38629;SDS011;24384;51.988;4.644;2023-05-23T14:06:56;13.82;;;4.15;;
38629;SDS011;24384;51.988;4.644;2023-05-23T14:09:21;21.52;;;4.68;;
38629;SDS011;24384;51.988;4.644;2023-05-23T14:11:48;12.05;;;3.30;;
38629;SDS011;24384;51.988;4.644;2023-05-23T14:14:15;15.93;;;3.60;;
38629;SDS011;24384;51.988;4.644;2023-05-23T14:16:41;17.40;;;3.40;;
38629;SDS011;24384;51.988;4.644;2023-05-23T14:19:06;10.98;;;2.63;;
38629;SDS011;24384;51.988;4.644;2023-05-23T14:21:32;18.38;;;3.30;;
38629;SDS011;24384;51.988;4.644;2023-05-23T14:23:57;12.57;;;3.50;;
38629;SDS011;24384;51.988;4.644;2023-05-23T14:26:22;13.35;;;3.78;;
38629;SDS011;24384;51.988;4.644;2023-05-23T14:28:48;17.55;;;4.20;;
38629;SDS011;24384;51.988;4.644;2023-05-23T14:31:13;12.55;;;3.30;;
38629;SDS011;24384;51.988;4.644;2023-05-23T14:33:38;12.85;;;2.92;;
38629;SDS011;24384;51.988;4.644;2023-05-23T14:36:04;15.60;;;3.58;;
38629;SDS011;24384;51.988;4.644;2023-05-23T14:38:30;13.73;;;3.10;;
38629;SDS011;24384;51.988;4.644;2023-05-23T14:40:55;14.57;;;4.03;;
38629;SDS011;24384;51.988;4.644;2023-05-23T14:43:20;18.35;;;3.90;;
38629;SDS011;24384;51.988;4.644;2023-05-23T14:45:45;16.75;;;3.88;;